KLM714 SMJP-EHAM
Flight info
| Callsign | KLM714 |
|---|---|
| Flight time | N/A |
| Altitude | 35000 |
| Route | TODOL DCT BUXEX DCT VALOV DCT 13N050W DCT QUETN/M085F350 DCT 25N040W 30N035W/M085F370 35N030W 42N020W 45N015W/M085F390 DCT TAMEL DCT EVBAK DCT GAPLI/N0484F390 DCT GAJIT DCT ENHAQ M197 REDFA |
| Aircraft | MD11/H-SDE3FGHIM1M2RWXY/LB1 |
Departure
| Time | 2026-04-30 21:59 |
|---|---|
| Airport | Johan Adolf Pengel International Airport (SMJP) |
Arrival
| Time | N/A |
|---|---|
| Airport | Amsterdam Airport Schiphol (EHAM) |
| Time | Latitude | Longitude | Altitude | Speed | Heading |
|---|---|---|---|---|---|
| 2026-04-30 21:31 | 5.45586 | -55.19754 | 68 ft | 0 kts | 84° |
| 2026-04-30 21:57 | 5.45508 | -55.19654 | 63 ft | 23 kts | 161° |
| 2026-04-30 21:57 | 5.45396 | -55.19716 | 64 ft | 34 kts | 210° |
| 2026-04-30 21:58 | 5.45294 | -55.19729 | 63 ft | 1 kts | 140° |
| 2026-04-30 21:58 | 5.45274 | -55.19620 | 70 ft | 32 kts | 86° |
| 2026-04-30 21:58 | 5.45285 | -55.19045 | 62 ft | 143 kts | 87° |
| 2026-04-30 21:58 | 5.45304 | -55.17775 | 429 ft | 205 kts | 86° |
| 2026-04-30 21:59 | 5.45616 | -55.16303 | 1288 ft | 220 kts | 67° |
| 2026-04-30 21:59 | 5.46553 | -55.15106 | 2421 ft | 229 kts | 37° |
| 2026-04-30 21:59 | 5.48107 | -55.14621 | 3215 ft | 251 kts | 3° |
| 2026-04-30 22:00 | 5.51573 | -55.15641 | 4937 ft | 267 kts | 340° |
| 2026-04-30 22:00 | 5.55386 | -55.17200 | 6686 ft | 320 kts | 339° |
| 2026-04-30 22:00 | 5.56810 | -55.17799 | 7466 ft | 330 kts | 339° |
| 2026-04-30 22:01 | 5.59470 | -55.18929 | 9110 ft | 341 kts | 338° |
| 2026-04-30 22:01 | 5.61647 | -55.19870 | 10444 ft | 346 kts | 337° |
| 2026-04-30 22:01 | 5.63862 | -55.20992 | 11489 ft | 359 kts | 330° |
| 2026-04-30 22:01 | 5.65929 | -55.22439 | 12679 ft | 360 kts | 322° |
| 2026-04-30 22:02 | 5.67694 | -55.24066 | 13691 ft | 327 kts | 315° |
| 2026-04-30 22:02 | 5.68649 | -55.25162 | 14079 ft | 308 kts | 310° |
| 2026-04-30 22:02 | 5.69897 | -55.26929 | 14486 ft | 317 kts | 303° |
| 2026-04-30 22:02 | 5.71011 | -55.28910 | 14966 ft | 332 kts | 298° |
| 2026-04-30 22:03 | 5.71966 | -55.30995 | 15487 ft | 326 kts | 293° |
| 2026-04-30 22:03 | 5.72791 | -55.33183 | 16006 ft | 336 kts | 289° |
| 2026-04-30 22:03 | 5.73482 | -55.35381 | 16541 ft | 335 kts | 286° |
| 2026-04-30 22:03 | 5.74086 | -55.37681 | 17105 ft | 343 kts | 284° |
| 2026-04-30 22:04 | 5.74598 | -55.40006 | 17685 ft | 342 kts | 281° |
| 2026-04-30 22:04 | 5.75040 | -55.42382 | 18284 ft | 354 kts | 279° |
| 2026-04-30 22:04 | 5.74868 | -55.47259 | 20105 ft | 355 kts | 256° |
| 2026-04-30 22:05 | 5.74543 | -55.49734 | 20952 ft | 360 kts | 268° |
| 2026-04-30 22:05 | 5.74568 | -55.52269 | 21807 ft | 366 kts | 271° |
| 2026-04-30 22:05 | 5.74676 | -55.54827 | 22690 ft | 372 kts | 272° |
| 2026-04-30 22:05 | 5.74806 | -55.57451 | 23532 ft | 377 kts | 272° |
| 2026-04-30 22:06 | 5.74944 | -55.60082 | 24253 ft | 381 kts | 272° |
| 2026-04-30 22:06 | 5.75200 | -55.65444 | 25718 ft | 388 kts | 272° |
| 2026-04-30 22:06 | 5.75311 | -55.68167 | 26426 ft | 391 kts | 272° |
| 2026-04-30 22:07 | 5.75441 | -55.70897 | 27158 ft | 392 kts | 276° |
| 2026-04-30 22:07 | 5.75781 | -55.73661 | 27129 ft | 413 kts | 280° |
| 2026-04-30 22:07 | 5.76284 | -55.76537 | 26791 ft | 415 kts | 281° |
| 2026-04-30 22:07 | 5.76821 | -55.79314 | 26424 ft | 401 kts | 282° |
| 2026-04-30 22:08 | 5.77369 | -55.82043 | 26072 ft | 388 kts | 282° |
| 2026-04-30 22:08 | 5.77913 | -55.84692 | 25932 ft | 387 kts | 282° |
| 2026-04-30 22:08 | 5.78456 | -55.87300 | 25891 ft | 387 kts | 282° |
| 2026-04-30 22:08 | 5.79016 | -55.89974 | 25885 ft | 389 kts | 282° |
| 2026-04-30 22:09 | 5.79580 | -55.92658 | 25886 ft | 396 kts | 282° |
| 2026-04-30 22:09 | 5.80151 | -55.95369 | 25885 ft | 398 kts | 282° |
| 2026-04-30 22:09 | 5.80719 | -55.98065 | 25885 ft | 398 kts | 282° |
| 2026-04-30 22:09 | 5.81300 | -56.00815 | 25885 ft | 398 kts | 282° |
| 2026-04-30 22:10 | 5.81869 | -56.03506 | 25882 ft | 398 kts | 282° |
| 2026-04-30 22:10 | 5.82450 | -56.06253 | 25884 ft | 398 kts | 282° |